createdAt,value
2022-09-05T00:00:00.813Z,99.90
2022-09-05T00:02:55.436Z,99.90
2022-09-05T00:05:38.564Z,99.90
2022-09-05T00:08:36.257Z,99.90
2022-09-05T00:11:43.308Z,99.90
2022-09-05T00:15:16.109Z,99.90
2022-09-05T00:17:50.152Z,99.90
2022-09-05T00:24:29.348Z,99.90
2022-09-05T00:24:37.781Z,99.90
2022-09-05T00:26:54.191Z,99.90
2022-09-05T00:30:25.513Z,99.90
2022-09-05T00:32:46.926Z,99.90
2022-09-05T00:35:52.781Z,99.90
2022-09-05T00:38:27.538Z,99.90
2022-09-05T00:41:08.387Z,99.90
2022-09-05T00:43:42.679Z,99.90
2022-09-05T00:46:31.997Z,99.90
2022-09-05T00:49:11.866Z,99.90
2022-09-05T00:51:55.390Z,99.90
2022-09-05T00:54:46.049Z,99.90
2022-09-05T00:57:42.191Z,99.90
2022-09-05T01:00:45.069Z,99.90
2022-09-05T01:03:34.867Z,99.90
2022-09-05T01:06:04.862Z,99.90
2022-09-05T01:08:50.534Z,99.90
2022-09-05T01:11:49.914Z,99.90
2022-09-05T01:14:50.595Z,99.90
2022-09-05T01:17:37.438Z,99.90
2022-09-05T01:20:44.471Z,99.90
2022-09-05T01:23:22.054Z,99.90
2022-09-05T01:26:22.254Z,99.90
2022-09-05T01:29:18.202Z,99.90
2022-09-05T01:32:04.064Z,99.90
2022-09-05T01:34:54.051Z,99.90
2022-09-05T01:37:37.597Z,99.90
2022-09-05T01:40:17.215Z,99.90
2022-09-05T01:42:47.329Z,99.90
2022-09-05T01:45:39.293Z,99.90
2022-09-05T01:48:14.677Z,99.90
2022-09-05T01:50:59.371Z,99.90
2022-09-05T01:54:25.760Z,99.90
2022-09-05T01:57:14.852Z,99.90
2022-09-05T01:59:58.663Z,99.90
2022-09-05T02:02:50.367Z,99.90
2022-09-05T02:05:48.420Z,99.90
2022-09-05T02:08:41.853Z,99.90
2022-09-05T02:11:11.286Z,99.90
2022-09-05T02:13:38.336Z,99.90
2022-09-05T02:16:28.699Z,99.90
2022-09-05T02:19:11.231Z,99.90
2022-09-05T02:21:57.573Z,99.90
2022-09-05T02:24:36.641Z,99.90
2022-09-05T02:27:43.618Z,99.90
2022-09-05T02:30:15.823Z,99.90
2022-09-05T02:33:27.268Z,99.90
2022-09-05T02:36:13.903Z,99.90
2022-09-05T02:45:06.607Z,99.90
2022-09-05T02:45:14.819Z,99.90
2022-09-05T02:45:26.739Z,99.90
2022-09-05T02:48:25.564Z,99.90
2022-09-05T02:57:29.247Z,99.90
2022-09-05T02:57:41.139Z,99.90
2022-09-05T02:58:07.418Z,99.90
2022-09-05T03:00:27.471Z,99.90
2022-09-05T03:03:07.461Z,99.90
2022-09-05T03:06:00.838Z,99.90
2022-09-05T03:09:09.767Z,99.90
2022-09-05T03:12:29.199Z,99.90
2022-09-05T03:15:22.381Z,99.90
2022-09-05T03:18:20.997Z,99.90
2022-09-05T03:21:26.931Z,99.90
2022-09-05T03:24:05.533Z,99.90
2022-09-05T03:26:54.250Z,99.90
2022-09-05T03:29:58.688Z,99.90
2022-09-05T03:33:08.091Z,99.90
2022-09-05T03:36:13.769Z,99.90
2022-09-05T03:39:08.397Z,99.90
2022-09-05T03:42:14.787Z,99.90
2022-09-05T03:44:47.886Z,99.90
2022-09-05T03:47:42.918Z,99.90
2022-09-05T03:57:07.415Z,99.90
2022-09-05T03:57:12.923Z,99.90
2022-09-05T03:57:17.336Z,99.90
2022-09-05T04:00:21.002Z,99.90
2022-09-05T04:08:11.094Z,99.90
2022-09-05T04:08:19.115Z,99.90
2022-09-05T04:17:32.810Z,99.90
2022-09-05T04:20:29.493Z,99.90
2022-09-05T04:23:14.291Z,99.90
2022-09-05T04:25:58.474Z,99.90
2022-09-05T04:29:02.796Z,99.90
2022-09-05T04:31:39.152Z,99.90
2022-09-05T04:34:28.279Z,99.90
2022-09-05T04:37:07.390Z,99.90
2022-09-05T04:39:35.974Z,99.90
2022-09-05T04:42:24.675Z,99.90
2022-09-05T04:44:58.794Z,99.90
2022-09-05T04:47:40.149Z,99.90
2022-09-05T04:50:22.718Z,99.90
2022-09-05T04:53:10.208Z,99.90
2022-09-05T04:55:50.722Z,99.90
2022-09-05T04:58:24.334Z,99.90
2022-09-05T05:06:04.991Z,99.90
2022-09-05T05:06:17.937Z,99.90
2022-09-05T05:07:07.504Z,99.90
2022-09-05T05:09:34.991Z,99.90
2022-09-05T05:17:59.310Z,99.90
2022-09-05T05:18:09.768Z,99.90
2022-09-05T05:18:35.628Z,99.90
2022-09-05T05:20:51.992Z,99.90
2022-09-05T05:23:28.778Z,99.90
2022-09-05T05:25:58.614Z,99.90
2022-09-05T05:28:28.603Z,99.90
2022-09-05T05:31:01.569Z,99.90
2022-09-05T05:33:33.091Z,99.90
2022-09-05T05:36:02.790Z,99.90
2022-09-05T05:38:49.938Z,99.90
2022-09-05T05:41:42.206Z,99.90
2022-09-05T05:44:13.352Z,99.90
2022-09-05T05:46:44.290Z,99.90
2022-09-05T05:49:33.103Z,99.90
2022-09-05T05:52:18.776Z,99.90
2022-09-05T05:55:50.396Z,99.90
2022-09-05T05:58:15.800Z,99.90
2022-09-05T06:01:04.175Z,99.90
2022-09-05T06:03:50.705Z,99.90
2022-09-05T06:06:33.945Z,99.90
2022-09-05T06:14:48.125Z,99.90
2022-09-05T06:14:56.702Z,99.90
2022-09-05T06:15:55.397Z,99.90
2022-09-05T06:18:28.960Z,99.90
2022-09-05T06:22:06.514Z,99.90
2022-09-05T06:24:14.086Z,99.90
2022-09-05T06:26:56.448Z,99.90
2022-09-05T06:29:38.753Z,99.90
2022-09-05T06:32:30.174Z,99.90
2022-09-05T06:35:23.400Z,99.90
2022-09-05T06:38:05.395Z,99.90
2022-09-05T06:40:42.582Z,99.90
2022-09-05T06:43:36.464Z,99.90
2022-09-05T06:46:11.049Z,99.90
2022-09-05T06:49:30.699Z,99.90
2022-09-05T06:52:28.559Z,99.90
2022-09-05T06:55:48.928Z,99.90
2022-09-05T06:58:53.545Z,99.90
2022-09-05T07:01:37.042Z,99.90
2022-09-05T07:08:48.276Z,99.90
2022-09-05T07:11:41.294Z,99.90
2022-09-05T07:14:29.923Z,99.90
2022-09-05T07:17:10.089Z,99.90
2022-09-05T07:21:15.916Z,99.90
2022-09-05T07:24:09.938Z,99.90
2022-09-05T07:26:54.677Z,99.90
2022-09-05T07:30:01.154Z,99.90
2022-09-05T07:32:41.359Z,99.90
2022-09-05T07:35:16.384Z,99.90
2022-09-05T07:38:38.230Z,99.90
2022-09-05T07:41:25.211Z,99.90
2022-09-05T07:44:00.543Z,99.90
2022-09-05T07:46:50.079Z,99.90
2022-09-05T07:49:23.796Z,99.90
2022-09-05T07:56:50.434Z,99.90
2022-09-05T07:57:07.929Z,99.90
2022-09-05T07:57:50.801Z,99.90
2022-09-05T08:00:25.585Z,99.90
2022-09-05T08:02:59.987Z,99.90
2022-09-05T08:05:36.004Z,99.90
2022-09-05T08:08:09.304Z,99.90
2022-09-05T08:11:25.145Z,99.90
2022-09-05T08:14:45.405Z,99.90
2022-09-05T08:17:10.811Z,99.90
2022-09-05T08:20:09.107Z,99.90
2022-09-05T08:22:52.810Z,99.90
2022-09-05T08:25:27.551Z,99.90
2022-09-05T08:28:20.489Z,99.90
2022-09-05T08:31:01.030Z,99.90
2022-09-05T08:33:34.869Z,99.90
2022-09-05T08:36:29.151Z,99.90
2022-09-05T08:39:00.651Z,99.90
2022-09-05T08:41:50.745Z,99.90
2022-09-05T08:46:40.134Z,99.90
2022-09-05T08:47:26.409Z,99.90
2022-09-05T08:50:14.547Z,99.90
2022-09-05T08:52:47.487Z,99.90
2022-09-05T08:55:35.647Z,99.90
2022-09-05T08:58:47.141Z,99.90
2022-09-05T09:01:23.622Z,99.90
2022-09-05T09:04:31.205Z,99.90
2022-09-05T09:07:45.022Z,99.90
2022-09-05T09:10:25.630Z,99.90
2022-09-05T09:13:17.205Z,99.90
2022-09-05T09:16:06.644Z,99.90
2022-09-05T09:18:48.769Z,99.90
2022-09-05T09:21:38.754Z,99.90
2022-09-05T09:24:17.996Z,99.90
2022-09-05T09:27:32.741Z,99.90
2022-09-05T09:30:14.867Z,99.90
2022-09-05T09:32:49.845Z,99.90
2022-09-05T09:35:37.787Z,99.90
2022-09-05T09:38:31.013Z,99.90
2022-09-05T09:41:31.209Z,99.90
2022-09-05T09:44:07.143Z,99.90
2022-09-05T09:46:46.371Z,99.90
2022-09-05T09:49:23.157Z,99.90
2022-09-05T09:52:05.967Z,99.90
2022-09-05T09:55:17.537Z,99.90
2022-09-05T09:58:19.500Z,99.90
2022-09-05T10:01:35.800Z,99.80
2022-09-05T10:10:49.031Z,99.50
2022-09-05T10:14:45.112Z,98.40
2022-09-05T10:17:36.741Z,96.30
2022-09-05T10:20:21.977Z,99.90
2022-09-05T10:23:13.883Z,96.90
2022-09-05T10:25:43.630Z,94.20
2022-09-05T10:28:16.316Z,94.40
2022-09-05T10:33:03.812Z,91.90
2022-09-05T10:35:23.252Z,89.60
2022-09-05T10:37:12.290Z,88.30
2022-09-05T10:39:47.251Z,89.60
2022-09-05T10:42:43.347Z,86.90
2022-09-05T10:45:47.120Z,89.40
2022-09-05T10:48:14.200Z,85.10
2022-09-05T10:50:53.511Z,84.80
2022-09-05T10:53:41.765Z,86.80
2022-09-05T10:56:44.644Z,87.80
2022-09-05T11:02:19.509Z,88.00
2022-09-05T11:02:38.256Z,87.40
2022-09-05T11:05:30.865Z,84.40
2022-09-05T11:08:23.963Z,85.20
2022-09-05T11:11:17.272Z,80.70
2022-09-05T11:13:58.822Z,81.60
2022-09-05T11:16:50.977Z,82.90
2022-09-05T11:19:30.789Z,82.40
2022-09-05T11:22:22.200Z,81.60
2022-09-05T11:24:57.369Z,80.00
2022-09-05T11:27:26.827Z,79.50
2022-09-05T11:29:57.204Z,79.70
2022-09-05T11:35:52.973Z,78.90
2022-09-05T11:40:08.723Z,81.50
2022-09-05T11:40:10.748Z,80.10
2022-09-05T11:42:20.936Z,81.30
2022-09-05T11:45:07.712Z,81.90
2022-09-05T11:47:56.349Z,82.20
2022-09-05T11:50:51.286Z,81.30
2022-09-05T11:53:21.039Z,81.70
2022-09-05T11:56:04.183Z,82.60
2022-09-05T11:59:05.241Z,82.80
2022-09-05T12:02:16.960Z,82.30
2022-09-05T12:05:49.121Z,84.60
2022-09-05T12:08:28.829Z,86.50
2022-09-05T12:11:11.846Z,85.60
2022-09-05T12:13:55.380Z,85.40
2022-09-05T12:16:57.476Z,85.20
2022-09-05T12:20:00.234Z,86.40
2022-09-05T12:22:36.356Z,87.00
2022-09-05T12:25:27.163Z,87.70
2022-09-05T12:29:27.199Z,87.20
2022-09-05T12:32:19.633Z,84.50
2022-09-05T12:36:13.058Z,84.80
2022-09-05T12:40:38.509Z,85.00
2022-09-05T12:41:35.258Z,84.40
2022-09-05T12:44:39.325Z,86.50
2022-09-05T12:46:33.265Z,88.40
2022-09-05T12:49:11.765Z,88.00
2022-09-05T12:51:47.681Z,88.90
2022-09-05T12:54:33.287Z,87.20
2022-09-05T13:01:39.287Z,87.20
2022-09-05T13:03:12.780Z,87.30
2022-09-05T13:03:34.910Z,82.10
2022-09-05T13:06:08.862Z,82.40
2022-09-05T13:08:59.120Z,80.70
2022-09-05T13:14:54.909Z,79.60
2022-09-05T13:15:21.719Z,77.50
2022-09-05T13:18:13.526Z,76.50
2022-09-05T13:21:06.750Z,75.00
2022-09-05T13:23:54.926Z,73.20
2022-09-05T13:26:36.374Z,72.80
2022-09-05T13:29:21.347Z,73.30
2022-09-05T13:37:55.135Z,72.80
2022-09-05T13:38:10.168Z,68.50
2022-09-05T13:38:19.073Z,70.70
2022-09-05T13:40:31.755Z,68.50
2022-09-05T13:43:10.712Z,65.50
2022-09-05T13:46:10.959Z,66.50
2022-09-05T13:52:37.844Z,68.60
2022-09-05T13:55:32.422Z,66.90
2022-09-05T13:58:16.038Z,64.60
2022-09-05T14:00:43.249Z,65.20
2022-09-05T14:06:47.566Z,62.30
2022-09-05T14:10:17.976Z,60.90
2022-09-05T14:13:14.080Z,61.30
2022-09-05T14:15:52.993Z,61.30
2022-09-05T14:18:52.954Z,62.80
2022-09-05T14:21:20.774Z,61.40
2022-09-05T14:24:30.287Z,63.00
2022-09-05T14:26:57.426Z,60.00
2022-09-05T14:29:33.198Z,60.10
2022-09-05T14:37:35.910Z,59.90
2022-09-05T14:37:50.570Z,60.30
2022-09-05T14:38:52.042Z,61.20
2022-09-05T14:42:09.425Z,61.20
2022-09-05T14:45:42.029Z,60.60
2022-09-05T14:48:31.305Z,60.20
2022-09-05T14:51:11.711Z,60.90
2022-09-05T15:00:34.512Z,60.20
2022-09-05T15:02:51.542Z,62.10
2022-09-05T15:02:54.501Z,62.00
2022-09-05T15:05:50.302Z,64.70
2022-09-05T15:10:16.285Z,64.00
2022-09-05T15:12:24.271Z,61.80
2022-09-05T15:14:14.623Z,62.00
2022-09-05T15:17:03.675Z,60.40
2022-09-05T15:20:06.439Z,61.50
2022-09-05T15:22:42.059Z,61.20
2022-09-05T15:25:23.152Z,62.10
2022-09-05T15:27:50.953Z,64.00
2022-09-05T15:30:22.652Z,67.00
2022-09-05T15:33:25.746Z,67.60
2022-09-05T15:35:53.629Z,65.60
2022-09-05T15:38:25.450Z,63.90
2022-09-05T15:41:20.236Z,62.10
2022-09-05T15:44:09.872Z,64.00
2022-09-05T15:46:57.297Z,64.80
2022-09-05T15:49:42.980Z,65.20
2022-09-05T15:52:31.246Z,65.50
2022-09-05T15:55:05.429Z,61.50
2022-09-05T15:57:43.412Z,63.30
2022-09-05T16:00:14.312Z,67.30
2022-09-05T16:03:08.688Z,66.60
2022-09-05T16:10:27.276Z,69.60
2022-09-05T16:10:43.466Z,65.30
2022-09-05T16:14:39.493Z,64.60
2022-09-05T16:23:19.631Z,63.80
2022-09-05T16:23:26.556Z,66.60
2022-09-05T16:23:40.523Z,65.40
2022-09-05T16:26:24.929Z,66.50
2022-09-05T16:29:35.576Z,66.80
2022-09-05T16:32:02.643Z,67.50
2022-09-05T16:35:01.731Z,67.00
2022-09-05T16:37:45.423Z,67.30
2022-09-05T16:40:16.226Z,67.40
2022-09-05T16:43:06.034Z,67.90
2022-09-05T16:46:10.559Z,67.30
2022-09-05T16:48:55.269Z,68.30
2022-09-05T16:51:45.349Z,67.30
2022-09-05T16:54:25.749Z,67.90
2022-09-05T16:57:04.375Z,69.00
2022-09-05T16:59:40.886Z,68.30
2022-09-05T17:02:09.541Z,68.70
2022-09-05T17:05:04.637Z,70.80
2022-09-05T17:08:10.338Z,71.00
2022-09-05T17:11:29.976Z,70.20
2022-09-05T17:14:12.389Z,71.00
2022-09-05T17:16:56.414Z,71.40
2022-09-05T17:20:23.916Z,75.60
2022-09-05T17:25:42.964Z,72.20
2022-09-05T17:29:32.748Z,72.70
2022-09-05T17:29:40.658Z,75.00
2022-09-05T17:31:57.937Z,75.20
2022-09-05T17:35:16.592Z,74.70
2022-09-05T17:38:21.260Z,76.10
2022-09-05T17:41:06.765Z,76.50
2022-09-05T17:43:39.405Z,78.90
2022-09-05T17:46:22.802Z,80.00
2022-09-05T17:49:19.005Z,80.10
2022-09-05T17:52:02.146Z,80.70
2022-09-05T17:54:31.554Z,80.70
2022-09-05T17:57:27.437Z,82.10
2022-09-05T17:59:55.517Z,82.50
2022-09-05T18:02:23.971Z,82.70
2022-09-05T18:04:53.428Z,83.00
2022-09-05T18:07:26.284Z,83.60
2022-09-05T18:10:14.872Z,83.00
2022-09-05T18:13:31.075Z,82.80
2022-09-05T18:15:32.706Z,84.10
2022-09-05T18:18:05.934Z,84.30
2022-09-05T18:20:40.820Z,84.10
2022-09-05T18:23:39.249Z,84.80
2022-09-05T18:26:21.357Z,85.20
2022-09-05T18:29:16.333Z,86.40
2022-09-05T18:31:43.526Z,87.30
2022-09-05T18:34:19.135Z,86.60
2022-09-05T18:36:53.832Z,87.60
2022-09-05T18:39:26.182Z,88.00
2022-09-05T18:42:25.835Z,88.50
2022-09-05T18:45:18.398Z,88.80
2022-09-05T18:47:59.645Z,88.60
2022-09-05T18:50:36.399Z,88.80
2022-09-05T18:53:13.160Z,89.20
2022-09-05T18:56:20.185Z,90.00
2022-09-05T18:58:51.740Z,90.00
2022-09-05T19:01:36.904Z,90.60
2022-09-05T19:04:39.348Z,90.50
2022-09-05T19:07:08.758Z,91.10
2022-09-05T19:09:37.958Z,90.90
2022-09-05T19:12:31.793Z,91.50
2022-09-05T19:15:08.362Z,91.40
2022-09-05T19:17:41.190Z,91.70
2022-09-05T19:20:32.969Z,91.90
2022-09-05T19:23:13.135Z,92.50
2022-09-05T19:25:53.188Z,93.30
2022-09-05T19:33:18.423Z,93.50
2022-09-05T19:36:45.687Z,93.50
2022-09-05T19:36:52.296Z,94.40
2022-09-05T19:37:26.229Z,94.30
2022-09-05T19:43:51.171Z,94.30
2022-09-05T19:47:25.948Z,94.70
2022-09-05T19:47:39.307Z,94.50
2022-09-05T19:48:34.214Z,95.70
2022-09-05T19:51:17.221Z,95.10
2022-09-05T19:54:03.982Z,94.70
2022-09-05T19:56:45.958Z,94.90
2022-09-05T19:59:17.884Z,95.70
2022-09-05T20:01:46.836Z,95.30
2022-09-05T20:04:19.084Z,95.60
2022-09-05T20:06:48.030Z,95.90
2022-09-05T20:09:16.274Z,96.10
2022-09-05T20:11:52.667Z,96.50
2022-09-05T20:14:35.697Z,96.20
2022-09-05T20:17:45.927Z,97.20
2022-09-05T20:20:17.746Z,97.40
2022-09-05T20:22:50.396Z,97.60
2022-09-05T20:25:36.796Z,98.20
2022-09-05T20:28:10.032Z,98.00
2022-09-05T20:30:42.149Z,98.30
2022-09-05T20:33:21.789Z,98.70
2022-09-05T20:40:47.105Z,98.50
2022-09-05T20:43:14.981Z,99.00
2022-09-05T20:43:35.622Z,99.90
2022-09-05T20:44:41.461Z,99.50
2022-09-05T20:54:09.827Z,99.80
2022-09-05T20:54:10.689Z,99.90
2022-09-05T20:54:28.648Z,99.90
2022-09-05T20:56:36.246Z,99.90
2022-09-05T20:59:03.332Z,99.90
2022-09-05T21:01:32.583Z,99.90
2022-09-05T21:04:05.437Z,99.90
2022-09-05T21:06:35.333Z,99.90
2022-09-05T21:09:25.755Z,99.90
2022-09-05T21:12:06.317Z,99.90
2022-09-05T21:14:36.035Z,99.90
2022-09-05T21:17:15.761Z,99.90
2022-09-05T21:19:52.071Z,99.90
2022-09-05T21:22:21.260Z,99.90
2022-09-05T21:24:49.070Z,99.90
2022-09-05T21:27:25.928Z,99.90
2022-09-05T21:29:58.741Z,99.90
2022-09-05T21:32:37.812Z,99.90
2022-09-05T21:35:15.398Z,99.90
2022-09-05T21:37:53.855Z,99.90
2022-09-05T21:40:21.733Z,99.90
2022-09-05T21:44:59.143Z,99.90
2022-09-05T21:47:39.905Z,99.90
2022-09-05T21:53:01.833Z,99.90
2022-09-05T21:59:26.231Z,99.90
2022-09-05T21:59:26.709Z,99.90
2022-09-05T22:01:12.279Z,99.90
2022-09-05T22:03:39.780Z,99.90
2022-09-05T22:06:11.801Z,99.90
2022-09-05T22:08:41.918Z,99.90
2022-09-05T22:11:28.936Z,99.90
2022-09-05T22:13:59.101Z,99.90
2022-09-05T22:16:31.714Z,99.90
2022-09-05T22:19:00.865Z,99.90
2022-09-05T22:21:34.642Z,99.90
2022-09-05T22:24:06.508Z,99.90
2022-09-05T22:26:41.641Z,99.90
2022-09-05T22:29:27.047Z,99.90
2022-09-05T22:31:54.810Z,99.90
2022-09-05T22:34:22.571Z,99.90
2022-09-05T22:36:50.941Z,99.90
2022-09-05T22:39:36.564Z,99.90
2022-09-05T22:42:10.042Z,99.90
2022-09-05T22:44:41.673Z,99.90
2022-09-05T22:47:10.379Z,99.90
2022-09-05T22:49:37.850Z,99.90
2022-09-05T22:52:06.668Z,99.90
2022-09-05T22:54:35.127Z,99.90
2022-09-05T22:57:03.260Z,99.90
2022-09-05T22:59:30.338Z,99.90
2022-09-05T23:01:57.485Z,99.90
2022-09-05T23:04:24.604Z,99.90
2022-09-05T23:06:51.650Z,99.90
2022-09-05T23:09:18.662Z,99.90
2022-09-05T23:11:45.730Z,99.90
2022-09-05T23:14:13.019Z,99.90
2022-09-05T23:16:40.260Z,99.90
2022-09-05T23:19:07.272Z,99.90
2022-09-05T23:21:37.546Z,99.90
2022-09-05T23:24:05.819Z,99.90
2022-09-05T23:26:32.876Z,99.90
2022-09-05T23:28:59.885Z,99.90
2022-09-05T23:31:27.176Z,99.90
2022-09-05T23:33:58.067Z,99.90
2022-09-05T23:36:25.124Z,99.90
2022-09-05T23:38:52.233Z,99.90
2022-09-05T23:41:19.322Z,99.90
2022-09-05T23:43:46.313Z,99.90
2022-09-05T23:46:13.443Z,99.90
2022-09-05T23:48:40.898Z,99.90
2022-09-05T23:51:10.685Z,99.90
2022-09-05T23:53:37.924Z,99.90
2022-09-05T23:56:07.001Z,99.90
2022-09-05T23:58:35.809Z,99.90
